sensor_id;sensor_type;location;lat;lon;timestamp;P1;durP1;ratioP1;P2;durP2;ratioP2
48199;SDS011;33990;44.602;10.976;2022-10-22T00:01:29;18.05;;;15.55;;
48199;SDS011;33990;44.602;10.976;2022-10-22T00:03:56;18.67;;;14.80;;
48199;SDS011;33990;44.602;10.976;2022-10-22T00:06:24;17.17;;;15.40;;
48199;SDS011;33990;44.602;10.976;2022-10-22T00:08:51;16.65;;;13.93;;
48199;SDS011;33990;44.602;10.976;2022-10-22T00:11:19;17.05;;;15.23;;
48199;SDS011;33990;44.602;10.976;2022-10-22T00:13:47;17.05;;;14.32;;
48199;SDS011;33990;44.602;10.976;2022-10-22T00:16:14;16.02;;;14.27;;
48199;SDS011;33990;44.602;10.976;2022-10-22T00:18:42;15.75;;;14.10;;
48199;SDS011;33990;44.602;10.976;2022-10-22T00:21:09;16.55;;;14.05;;
48199;SDS011;33990;44.602;10.976;2022-10-22T00:23:40;16.23;;;14.02;;
48199;SDS011;33990;44.602;10.976;2022-10-22T00:26:09;16.13;;;14.30;;
48199;SDS011;33990;44.602;10.976;2022-10-22T00:28:36;17.30;;;13.95;;
48199;SDS011;33990;44.602;10.976;2022-10-22T00:31:05;14.75;;;13.25;;
48199;SDS011;33990;44.602;10.976;2022-10-22T00:33:32;15.82;;;13.95;;
48199;SDS011;33990;44.602;10.976;2022-10-22T00:35:59;17.30;;;14.30;;
48199;SDS011;33990;44.602;10.976;2022-10-22T00:38:27;17.95;;;14.00;;
48199;SDS011;33990;44.602;10.976;2022-10-22T00:40:54;15.07;;;13.50;;
48199;SDS011;33990;44.602;10.976;2022-10-22T00:43:22;14.95;;;13.35;;
48199;SDS011;33990;44.602;10.976;2022-10-22T00:45:49;15.35;;;13.65;;
48199;SDS011;33990;44.602;10.976;2022-10-22T00:51:02;15.23;;;12.90;;
48199;SDS011;33990;44.602;10.976;2022-10-22T00:53:36;16.02;;;13.45;;
48199;SDS011;33990;44.602;10.976;2022-10-22T00:56:11;15.43;;;12.88;;
48199;SDS011;33990;44.602;10.976;2022-10-22T00:58:40;14.65;;;13.15;;
48199;SDS011;33990;44.602;10.976;2022-10-22T01:01:13;15.40;;;13.50;;
48199;SDS011;33990;44.602;10.976;2022-10-22T01:03:48;14.60;;;12.50;;
48199;SDS011;33990;44.602;10.976;2022-10-22T01:06:23;14.50;;;12.20;;
48199;SDS011;33990;44.602;10.976;2022-10-22T01:11:34;14.90;;;12.73;;
48199;SDS011;33990;44.602;10.976;2022-10-22T01:22:40;13.95;;;12.45;;
48199;SDS011;33990;44.602;10.976;2022-10-22T01:28:06;14.32;;;12.88;;
48199;SDS011;33990;44.602;10.976;2022-10-22T01:30:55;13.98;;;11.38;;
48199;SDS011;33990;44.602;10.976;2022-10-22T01:33:25;14.50;;;12.80;;
48199;SDS011;33990;44.602;10.976;2022-10-22T01:35:53;13.85;;;12.00;;
48199;SDS011;33990;44.602;10.976;2022-10-22T01:38:22;14.13;;;11.95;;
48199;SDS011;33990;44.602;10.976;2022-10-22T01:40:50;13.30;;;11.43;;
48199;SDS011;33990;44.602;10.976;2022-10-22T01:43:18;12.25;;;10.95;;
48199;SDS011;33990;44.602;10.976;2022-10-22T01:45:47;15.27;;;12.23;;
48199;SDS011;33990;44.602;10.976;2022-10-22T01:56:53;12.70;;;11.32;;
48199;SDS011;33990;44.602;10.976;2022-10-22T02:08:26;12.27;;;10.93;;
48199;SDS011;33990;44.602;10.976;2022-10-22T02:10:57;13.68;;;11.32;;
48199;SDS011;33990;44.602;10.976;2022-10-22T02:13:39;14.68;;;11.82;;
48199;SDS011;33990;44.602;10.976;2022-10-22T02:16:27;11.60;;;10.45;;
48199;SDS011;33990;44.602;10.976;2022-10-22T02:21:57;13.65;;;11.30;;
48199;SDS011;33990;44.602;10.976;2022-10-22T02:24:24;12.20;;;10.90;;
48199;SDS011;33990;44.602;10.976;2022-10-22T02:32:37;11.50;;;10.35;;
48199;SDS011;33990;44.602;10.976;2022-10-22T02:35:09;11.27;;;10.18;;
48199;SDS011;33990;44.602;10.976;2022-10-22T02:37:40;11.50;;;9.88;;
48199;SDS011;33990;44.602;10.976;2022-10-22T02:40:09;12.90;;;10.63;;
48199;SDS011;33990;44.602;10.976;2022-10-22T02:42:38;12.18;;;9.95;;
48199;SDS011;33990;44.602;10.976;2022-10-22T02:45:07;11.65;;;9.93;;
48199;SDS011;33990;44.602;10.976;2022-10-22T02:47:34;11.27;;;10.07;;
48199;SDS011;33990;44.602;10.976;2022-10-22T02:50:02;12.45;;;10.43;;
48199;SDS011;33990;44.602;10.976;2022-10-22T02:52:35;12.80;;;10.43;;
48199;SDS011;33990;44.602;10.976;2022-10-22T02:55:03;13.43;;;11.02;;
48199;SDS011;33990;44.602;10.976;2022-10-22T02:57:32;11.05;;;9.88;;
48199;SDS011;33990;44.602;10.976;2022-10-22T02:59:59;12.20;;;10.90;;
48199;SDS011;33990;44.602;10.976;2022-10-22T03:02:26;11.20;;;9.98;;
48199;SDS011;33990;44.602;10.976;2022-10-22T03:04:53;12.70;;;10.38;;
48199;SDS011;33990;44.602;10.976;2022-10-22T03:07:21;11.32;;;9.43;;
48199;SDS011;33990;44.602;10.976;2022-10-22T03:09:48;10.45;;;9.35;;
48199;SDS011;33990;44.602;10.976;2022-10-22T03:12:15;11.95;;;10.38;;
48199;SDS011;33990;44.602;10.976;2022-10-22T03:14:43;11.85;;;10.02;;
48199;SDS011;33990;44.602;10.976;2022-10-22T03:17:10;11.80;;;10.05;;
48199;SDS011;33990;44.602;10.976;2022-10-22T03:19:37;11.25;;;10.05;;
48199;SDS011;33990;44.602;10.976;2022-10-22T03:22:06;10.70;;;9.60;;
48199;SDS011;33990;44.602;10.976;2022-10-22T03:24:40;11.85;;;10.50;;
48199;SDS011;33990;44.602;10.976;2022-10-22T03:27:10;11.85;;;9.77;;
48199;SDS011;33990;44.602;10.976;2022-10-22T03:29:40;10.50;;;8.98;;
48199;SDS011;33990;44.602;10.976;2022-10-22T03:32:09;9.85;;;8.77;;
48199;SDS011;33990;44.602;10.976;2022-10-22T03:34:36;10.82;;;9.35;;
48199;SDS011;33990;44.602;10.976;2022-10-22T03:37:03;10.13;;;9.13;;
48199;SDS011;33990;44.602;10.976;2022-10-22T03:39:32;9.38;;;8.45;;
48199;SDS011;33990;44.602;10.976;2022-10-22T03:42:01;10.60;;;9.32;;
48199;SDS011;33990;44.602;10.976;2022-10-22T03:44:29;9.95;;;8.95;;
48199;SDS011;33990;44.602;10.976;2022-10-22T03:46:58;10.68;;;9.35;;
48199;SDS011;33990;44.602;10.976;2022-10-22T03:49:28;9.70;;;8.70;;
48199;SDS011;33990;44.602;10.976;2022-10-22T03:51:56;9.57;;;8.50;;
48199;SDS011;33990;44.602;10.976;2022-10-22T03:54:23;9.70;;;8.73;;
48199;SDS011;33990;44.602;10.976;2022-10-22T03:56:50;10.13;;;9.07;;
48199;SDS011;33990;44.602;10.976;2022-10-22T03:59:18;10.57;;;9.50;;
48199;SDS011;33990;44.602;10.976;2022-10-22T04:01:45;10.23;;;8.48;;
48199;SDS011;33990;44.602;10.976;2022-10-22T04:04:12;10.32;;;7.55;;
48199;SDS011;33990;44.602;10.976;2022-10-22T04:06:39;9.07;;;8.20;;
48199;SDS011;33990;44.602;10.976;2022-10-22T04:09:07;8.90;;;8.00;;
48199;SDS011;33990;44.602;10.976;2022-10-22T04:11:34;12.30;;;8.68;;
48199;SDS011;33990;44.602;10.976;2022-10-22T04:14:01;9.60;;;8.60;;
48199;SDS011;33990;44.602;10.976;2022-10-22T04:16:29;10.50;;;8.27;;
48199;SDS011;33990;44.602;10.976;2022-10-22T04:18:58;9.10;;;8.02;;
48199;SDS011;33990;44.602;10.976;2022-10-22T04:21:25;9.07;;;8.18;;
48199;SDS011;33990;44.602;10.976;2022-10-22T04:23:53;10.50;;;8.23;;
48199;SDS011;33990;44.602;10.976;2022-10-22T04:26:20;8.88;;;7.97;;
48199;SDS011;33990;44.602;10.976;2022-10-22T04:28:48;9.88;;;7.72;;
48199;SDS011;33990;44.602;10.976;2022-10-22T04:31:18;9.52;;;8.13;;
48199;SDS011;33990;44.602;10.976;2022-10-22T04:33:47;8.55;;;7.72;;
48199;SDS011;33990;44.602;10.976;2022-10-22T04:36:18;10.05;;;7.93;;
48199;SDS011;33990;44.602;10.976;2022-10-22T04:38:46;10.00;;;8.40;;
48199;SDS011;33990;44.602;10.976;2022-10-22T04:41:20;10.25;;;8.45;;
48199;SDS011;33990;44.602;10.976;2022-10-22T04:43:49;8.63;;;7.57;;
48199;SDS011;33990;44.602;10.976;2022-10-22T04:46:17;8.73;;;7.25;;
48199;SDS011;33990;44.602;10.976;2022-10-22T04:48:44;8.73;;;7.82;;
48199;SDS011;33990;44.602;10.976;2022-10-22T04:51:14;8.50;;;7.68;;
48199;SDS011;33990;44.602;10.976;2022-10-22T04:53:43;8.55;;;7.45;;
48199;SDS011;33990;44.602;10.976;2022-10-22T04:56:12;8.57;;;7.68;;
48199;SDS011;33990;44.602;10.976;2022-10-22T04:58:42;7.85;;;6.95;;
48199;SDS011;33990;44.602;10.976;2022-10-22T05:01:16;9.63;;;7.88;;
48199;SDS011;33990;44.602;10.976;2022-10-22T05:03:48;7.95;;;7.13;;
48199;SDS011;33990;44.602;10.976;2022-10-22T05:06:17;8.82;;;7.10;;
48199;SDS011;33990;44.602;10.976;2022-10-22T05:08:47;8.30;;;7.50;;
48199;SDS011;33990;44.602;10.976;2022-10-22T05:11:19;8.00;;;7.10;;
48199;SDS011;33990;44.602;10.976;2022-10-22T05:13:48;7.85;;;7.05;;
48199;SDS011;33990;44.602;10.976;2022-10-22T05:16:15;8.25;;;7.35;;
48199;SDS011;33990;44.602;10.976;2022-10-22T05:18:43;11.48;;;7.80;;
48199;SDS011;33990;44.602;10.976;2022-10-22T05:21:20;8.13;;;7.25;;
48199;SDS011;33990;44.602;10.976;2022-10-22T05:23:48;7.28;;;6.57;;
48199;SDS011;33990;44.602;10.976;2022-10-22T05:26:18;8.23;;;7.15;;
48199;SDS011;33990;44.602;10.976;2022-10-22T05:28:46;7.85;;;7.05;;
48199;SDS011;33990;44.602;10.976;2022-10-22T05:31:15;8.32;;;7.38;;
48199;SDS011;33990;44.602;10.976;2022-10-22T05:33:43;7.25;;;6.20;;
48199;SDS011;33990;44.602;10.976;2022-10-22T05:36:13;9.00;;;6.80;;
48199;SDS011;33990;44.602;10.976;2022-10-22T05:38:42;8.23;;;6.65;;
48199;SDS011;33990;44.602;10.976;2022-10-22T05:41:12;8.35;;;6.97;;
48199;SDS011;33990;44.602;10.976;2022-10-22T05:43:42;7.05;;;6.35;;
48199;SDS011;33990;44.602;10.976;2022-10-22T05:46:10;7.93;;;6.70;;
48199;SDS011;33990;44.602;10.976;2022-10-22T05:49:06;8.20;;;6.68;;
48199;SDS011;33990;44.602;10.976;2022-10-22T05:51:34;6.75;;;6.05;;
48199;SDS011;33990;44.602;10.976;2022-10-22T05:54:03;7.78;;;6.70;;
48199;SDS011;33990;44.602;10.976;2022-10-22T05:56:32;6.93;;;5.88;;
48199;SDS011;33990;44.602;10.976;2022-10-22T05:59:00;7.80;;;6.68;;
48199;SDS011;33990;44.602;10.976;2022-10-22T06:01:30;8.15;;;6.78;;
48199;SDS011;33990;44.602;10.976;2022-10-22T06:03:59;8.15;;;6.30;;
48199;SDS011;33990;44.602;10.976;2022-10-22T06:06:29;7.97;;;6.22;;
48199;SDS011;33990;44.602;10.976;2022-10-22T06:09:01;7.72;;;6.75;;
48199;SDS011;33990;44.602;10.976;2022-10-22T06:11:40;7.38;;;6.68;;
48199;SDS011;33990;44.602;10.976;2022-10-22T06:14:08;7.65;;;6.93;;
48199;SDS011;33990;44.602;10.976;2022-10-22T06:16:35;8.30;;;6.90;;
48199;SDS011;33990;44.602;10.976;2022-10-22T06:19:03;7.90;;;5.78;;
48199;SDS011;33990;44.602;10.976;2022-10-22T06:21:31;7.88;;;5.88;;
48199;SDS011;33990;44.602;10.976;2022-10-22T06:23:59;6.72;;;6.03;;
48199;SDS011;33990;44.602;10.976;2022-10-22T06:26:28;6.03;;;5.43;;
48199;SDS011;33990;44.602;10.976;2022-10-22T06:28:56;7.13;;;6.43;;
48199;SDS011;33990;44.602;10.976;2022-10-22T06:31:24;6.38;;;5.72;;
48199;SDS011;33990;44.602;10.976;2022-10-22T06:33:53;6.65;;;5.63;;
48199;SDS011;33990;44.602;10.976;2022-10-22T06:36:22;7.25;;;5.82;;
48199;SDS011;33990;44.602;10.976;2022-10-22T06:38:51;7.25;;;6.40;;
48199;SDS011;33990;44.602;10.976;2022-10-22T06:41:19;7.60;;;6.18;;
48199;SDS011;33990;44.602;10.976;2022-10-22T06:43:52;6.95;;;6.20;;
48199;SDS011;33990;44.602;10.976;2022-10-22T06:46:20;6.88;;;6.13;;
48199;SDS011;33990;44.602;10.976;2022-10-22T06:48:49;7.85;;;6.50;;
48199;SDS011;33990;44.602;10.976;2022-10-22T06:51:18;6.72;;;6.03;;
48199;SDS011;33990;44.602;10.976;2022-10-22T06:53:47;7.15;;;6.45;;
48199;SDS011;33990;44.602;10.976;2022-10-22T06:56:16;7.35;;;6.50;;
48199;SDS011;33990;44.602;10.976;2022-10-22T06:58:46;6.95;;;5.82;;
48199;SDS011;33990;44.602;10.976;2022-10-22T07:01:15;9.20;;;6.10;;
48199;SDS011;33990;44.602;10.976;2022-10-22T07:03:44;6.70;;;6.00;;
48199;SDS011;33990;44.602;10.976;2022-10-22T07:06:13;7.15;;;6.45;;
48199;SDS011;33990;44.602;10.976;2022-10-22T07:08:41;6.63;;;5.97;;
48199;SDS011;33990;44.602;10.976;2022-10-22T07:13:50;7.05;;;6.03;;
48199;SDS011;33990;44.602;10.976;2022-10-22T07:16:19;6.22;;;5.57;;
48199;SDS011;33990;44.602;10.976;2022-10-22T07:18:47;7.50;;;6.05;;
48199;SDS011;33990;44.602;10.976;2022-10-22T07:21:15;6.47;;;5.85;;
48199;SDS011;33990;44.602;10.976;2022-10-22T07:23:43;7.00;;;6.30;;
48199;SDS011;33990;44.602;10.976;2022-10-22T07:26:12;6.72;;;6.05;;
48199;SDS011;33990;44.602;10.976;2022-10-22T07:28:41;7.18;;;5.82;;
48199;SDS011;33990;44.602;10.976;2022-10-22T07:31:09;6.20;;;5.60;;
48199;SDS011;33990;44.602;10.976;2022-10-22T07:33:37;6.35;;;5.75;;
48199;SDS011;33990;44.602;10.976;2022-10-22T07:36:06;6.78;;;5.72;;
48199;SDS011;33990;44.602;10.976;2022-10-22T07:38:36;8.07;;;5.50;;
48199;SDS011;33990;44.602;10.976;2022-10-22T07:41:04;6.93;;;5.80;;
48199;SDS011;33990;44.602;10.976;2022-10-22T07:43:31;6.53;;;5.90;;
48199;SDS011;33990;44.602;10.976;2022-10-22T07:45:58;8.35;;;6.32;;
48199;SDS011;33990;44.602;10.976;2022-10-22T07:48:26;7.40;;;5.90;;
48199;SDS011;33990;44.602;10.976;2022-10-22T07:50:53;6.88;;;5.63;;
48199;SDS011;33990;44.602;10.976;2022-10-22T07:53:21;7.47;;;5.82;;
48199;SDS011;33990;44.602;10.976;2022-10-22T07:55:51;6.88;;;6.18;;
48199;SDS011;33990;44.602;10.976;2022-10-22T07:58:20;7.20;;;5.60;;
48199;SDS011;33990;44.602;10.976;2022-10-22T08:00:48;6.78;;;6.13;;
48199;SDS011;33990;44.602;10.976;2022-10-22T08:03:17;6.13;;;5.45;;
48199;SDS011;33990;44.602;10.976;2022-10-22T08:05:44;5.97;;;5.47;;
48199;SDS011;33990;44.602;10.976;2022-10-22T08:08:12;6.78;;;5.30;;
48199;SDS011;33990;44.602;10.976;2022-10-22T08:10:41;5.97;;;5.43;;
48199;SDS011;33990;44.602;10.976;2022-10-22T08:13:09;7.03;;;5.65;;
48199;SDS011;33990;44.602;10.976;2022-10-22T08:15:37;6.50;;;5.90;;
48199;SDS011;33990;44.602;10.976;2022-10-22T08:18:05;5.82;;;5.25;;
48199;SDS011;33990;44.602;10.976;2022-10-22T08:20:32;7.55;;;5.55;;
48199;SDS011;33990;44.602;10.976;2022-10-22T08:22:59;5.68;;;5.10;;
48199;SDS011;33990;44.602;10.976;2022-10-22T08:25:27;7.57;;;6.05;;
48199;SDS011;33990;44.602;10.976;2022-10-22T08:27:54;6.32;;;5.70;;
48199;SDS011;33990;44.602;10.976;2022-10-22T08:30:21;6.40;;;5.80;;
48199;SDS011;33990;44.602;10.976;2022-10-22T08:32:49;6.20;;;5.53;;
48199;SDS011;33990;44.602;10.976;2022-10-22T08:35:20;6.93;;;5.15;;
48199;SDS011;33990;44.602;10.976;2022-10-22T08:37:47;7.10;;;5.60;;
48199;SDS011;33990;44.602;10.976;2022-10-22T08:40:29;6.07;;;5.13;;
48199;SDS011;33990;44.602;10.976;2022-10-22T08:45:39;5.43;;;4.85;;
48199;SDS011;33990;44.602;10.976;2022-10-22T08:50:45;7.30;;;5.82;;
48199;SDS011;33990;44.602;10.976;2022-10-22T08:53:15;7.05;;;5.40;;
48199;SDS011;33990;44.602;10.976;2022-10-22T08:55:44;5.85;;;5.28;;
48199;SDS011;33990;44.602;10.976;2022-10-22T09:00:44;5.70;;;5.03;;
48199;SDS011;33990;44.602;10.976;2022-10-22T09:06:00;5.90;;;5.30;;
48199;SDS011;33990;44.602;10.976;2022-10-22T09:08:34;6.07;;;5.38;;
48199;SDS011;33990;44.602;10.976;2022-10-22T09:11:11;5.57;;;5.03;;
48199;SDS011;33990;44.602;10.976;2022-10-22T09:13:44;6.00;;;5.40;;
48199;SDS011;33990;44.602;10.976;2022-10-22T09:16:17;6.82;;;5.18;;
48199;SDS011;33990;44.602;10.976;2022-10-22T09:24:41;6.65;;;5.30;;
48199;SDS011;33990;44.602;10.976;2022-10-22T09:27:13;5.22;;;4.63;;
48199;SDS011;33990;44.602;10.976;2022-10-22T09:29:42;5.10;;;4.57;;
48199;SDS011;33990;44.602;10.976;2022-10-22T09:32:11;5.13;;;4.63;;
48199;SDS011;33990;44.602;10.976;2022-10-22T09:34:38;5.18;;;4.53;;
48199;SDS011;33990;44.602;10.976;2022-10-22T09:37:07;5.53;;;4.90;;
48199;SDS011;33990;44.602;10.976;2022-10-22T09:39:45;5.32;;;4.70;;
48199;SDS011;33990;44.602;10.976;2022-10-22T09:42:17;5.78;;;5.18;;
48199;SDS011;33990;44.602;10.976;2022-10-22T09:44:53;6.82;;;4.75;;
48199;SDS011;33990;44.602;10.976;2022-10-22T09:47:27;4.93;;;4.28;;
48199;SDS011;33990;44.602;10.976;2022-10-22T09:50:27;5.38;;;4.88;;
48199;SDS011;33990;44.602;10.976;2022-10-22T09:53:28;5.75;;;4.90;;
48199;SDS011;33990;44.602;10.976;2022-10-22T09:55:59;6.45;;;5.20;;
48199;SDS011;33990;44.602;10.976;2022-10-22T09:58:40;5.88;;;4.80;;
48199;SDS011;33990;44.602;10.976;2022-10-22T10:01:16;6.68;;;5.20;;
48199;SDS011;33990;44.602;10.976;2022-10-22T10:04:05;6.15;;;4.82;;
48199;SDS011;33990;44.602;10.976;2022-10-22T10:06:36;5.38;;;4.78;;
48199;SDS011;33990;44.602;10.976;2022-10-22T10:09:19;4.85;;;4.35;;
48199;SDS011;33990;44.602;10.976;2022-10-22T10:17:03;5.43;;;4.93;;
48199;SDS011;33990;44.602;10.976;2022-10-22T10:20:08;5.28;;;4.38;;
48199;SDS011;33990;44.602;10.976;2022-10-22T10:36:22;6.25;;;5.30;;
48199;SDS011;33990;44.602;10.976;2022-10-22T10:41:33;5.68;;;5.07;;
48199;SDS011;33990;44.602;10.976;2022-10-22T10:49:32;5.15;;;4.65;;
48199;SDS011;33990;44.602;10.976;2022-10-22T10:55:05;5.35;;;4.30;;
48199;SDS011;33990;44.602;10.976;2022-10-22T10:57:47;5.63;;;4.88;;
48199;SDS011;33990;44.602;10.976;2022-10-22T11:00:21;4.82;;;4.40;;
48199;SDS011;33990;44.602;10.976;2022-10-22T11:05:53;5.88;;;4.13;;
48199;SDS011;33990;44.602;10.976;2022-10-22T11:08:31;5.55;;;4.65;;
48199;SDS011;33990;44.602;10.976;2022-10-22T11:13:56;4.93;;;4.43;;
48199;SDS011;33990;44.602;10.976;2022-10-22T11:22:31;5.78;;;5.15;;
48199;SDS011;33990;44.602;10.976;2022-10-22T11:25:02;4.28;;;3.88;;
48199;SDS011;33990;44.602;10.976;2022-10-22T11:27:42;6.03;;;5.00;;
48199;SDS011;33990;44.602;10.976;2022-10-22T11:30:14;5.72;;;4.38;;
48199;SDS011;33990;44.602;10.976;2022-10-22T11:32:48;4.78;;;4.28;;
48199;SDS011;33990;44.602;10.976;2022-10-22T11:35:41;5.50;;;4.72;;
48199;SDS011;33990;44.602;10.976;2022-10-22T11:38:10;5.55;;;4.40;;
48199;SDS011;33990;44.602;10.976;2022-10-22T11:41:03;4.90;;;4.40;;
48199;SDS011;33990;44.602;10.976;2022-10-22T11:43:52;6.07;;;4.75;;
48199;SDS011;33990;44.602;10.976;2022-10-22T11:46:27;5.65;;;4.78;;
48199;SDS011;33990;44.602;10.976;2022-10-22T11:49:17;6.00;;;5.05;;
48199;SDS011;33990;44.602;10.976;2022-10-22T11:51:48;5.13;;;4.63;;
48199;SDS011;33990;44.602;10.976;2022-10-22T11:59:46;4.50;;;4.10;;
48199;SDS011;33990;44.602;10.976;2022-10-22T12:08:13;4.45;;;3.92;;
48199;SDS011;33990;44.602;10.976;2022-10-22T12:10:54;4.53;;;4.13;;
48199;SDS011;33990;44.602;10.976;2022-10-22T12:13:30;5.78;;;4.68;;
48199;SDS011;33990;44.602;10.976;2022-10-22T12:16:02;5.25;;;4.75;;
48199;SDS011;33990;44.602;10.976;2022-10-22T12:18:37;4.80;;;4.20;;
48199;SDS011;33990;44.602;10.976;2022-10-22T12:21:11;5.03;;;4.47;;
48199;SDS011;33990;44.602;10.976;2022-10-22T12:23:42;5.15;;;4.25;;
48199;SDS011;33990;44.602;10.976;2022-10-22T12:26:23;6.35;;;4.10;;
48199;SDS011;33990;44.602;10.976;2022-10-22T12:28:57;5.00;;;4.50;;
48199;SDS011;33990;44.602;10.976;2022-10-22T12:31:25;5.13;;;4.63;;
48199;SDS011;33990;44.602;10.976;2022-10-22T12:33:59;4.65;;;4.20;;
48199;SDS011;33990;44.602;10.976;2022-10-22T12:36:27;5.97;;;4.70;;
48199;SDS011;33990;44.602;10.976;2022-10-22T12:38:59;5.57;;;4.55;;
48199;SDS011;33990;44.602;10.976;2022-10-22T12:41:31;5.07;;;4.47;;
48199;SDS011;33990;44.602;10.976;2022-10-22T12:44:00;4.37;;;3.73;;
48199;SDS011;33990;44.602;10.976;2022-10-22T12:46:31;4.78;;;4.20;;
48199;SDS011;33990;44.602;10.976;2022-10-22T12:49:01;4.88;;;3.92;;
48199;SDS011;33990;44.602;10.976;2022-10-22T12:51:32;5.13;;;4.63;;
48199;SDS011;33990;44.602;10.976;2022-10-22T12:54:02;5.53;;;4.82;;
48199;SDS011;33990;44.602;10.976;2022-10-22T12:56:34;4.18;;;3.75;;
48199;SDS011;33990;44.602;10.976;2022-10-22T12:59:05;4.35;;;3.85;;
48199;SDS011;33990;44.602;10.976;2022-10-22T13:01:41;4.80;;;4.03;;
48199;SDS011;33990;44.602;10.976;2022-10-22T13:06:43;4.43;;;4.03;;
48199;SDS011;33990;44.602;10.976;2022-10-22T13:11:56;4.13;;;3.72;;
48199;SDS011;33990;44.602;10.976;2022-10-22T13:14:32;4.13;;;3.72;;
48199;SDS011;33990;44.602;10.976;2022-10-22T13:22:31;4.72;;;4.22;;
48199;SDS011;33990;44.602;10.976;2022-10-22T13:27:59;4.38;;;3.97;;
48199;SDS011;33990;44.602;10.976;2022-10-22T13:30:37;5.35;;;4.30;;
48199;SDS011;33990;44.602;10.976;2022-10-22T13:33:16;4.72;;;4.22;;
48199;SDS011;33990;44.602;10.976;2022-10-22T13:35:49;4.28;;;3.88;;
48199;SDS011;33990;44.602;10.976;2022-10-22T13:38:18;4.13;;;3.72;;
48199;SDS011;33990;44.602;10.976;2022-10-22T13:40:47;4.85;;;3.90;;
48199;SDS011;33990;44.602;10.976;2022-10-22T13:43:15;4.25;;;3.85;;
48199;SDS011;33990;44.602;10.976;2022-10-22T13:45:43;6.20;;;3.97;;
48199;SDS011;33990;44.602;10.976;2022-10-22T13:48:13;4.25;;;3.85;;
48199;SDS011;33990;44.602;10.976;2022-10-22T13:50:42;4.88;;;4.38;;
48199;SDS011;33990;44.602;10.976;2022-10-22T13:53:12;4.90;;;4.40;;
48199;SDS011;33990;44.602;10.976;2022-10-22T13:55:45;4.30;;;3.90;;
48199;SDS011;33990;44.602;10.976;2022-10-22T13:58:13;4.22;;;3.83;;
48199;SDS011;33990;44.602;10.976;2022-10-22T14:00:46;4.47;;;4.00;;
48199;SDS011;33990;44.602;10.976;2022-10-22T14:03:20;4.82;;;3.78;;
48199;SDS011;33990;44.602;10.976;2022-10-22T14:08:20;5.45;;;4.38;;
48199;SDS011;33990;44.602;10.976;2022-10-22T14:10:49;4.80;;;4.40;;
48199;SDS011;33990;44.602;10.976;2022-10-22T14:13:16;4.72;;;3.95;;
48199;SDS011;33990;44.602;10.976;2022-10-22T14:15:46;4.25;;;3.85;;
48199;SDS011;33990;44.602;10.976;2022-10-22T14:18:20;4.30;;;3.67;;
48199;SDS011;33990;44.602;10.976;2022-10-22T14:20:55;4.28;;;3.88;;
48199;SDS011;33990;44.602;10.976;2022-10-22T14:23:27;5.13;;;4.40;;
48199;SDS011;33990;44.602;10.976;2022-10-22T14:25:55;5.07;;;4.32;;
48199;SDS011;33990;44.602;10.976;2022-10-22T14:28:24;4.70;;;4.10;;
48199;SDS011;33990;44.602;10.976;2022-10-22T14:30:51;4.55;;;4.15;;
48199;SDS011;33990;44.602;10.976;2022-10-22T14:33:24;4.72;;;4.10;;
48199;SDS011;33990;44.602;10.976;2022-10-22T14:36:00;4.60;;;4.20;;
48199;SDS011;33990;44.602;10.976;2022-10-22T14:38:28;4.88;;;3.85;;
48199;SDS011;33990;44.602;10.976;2022-10-22T14:40:55;5.70;;;4.25;;
48199;SDS011;33990;44.602;10.976;2022-10-22T14:43:26;4.78;;;4.07;;
48199;SDS011;33990;44.602;10.976;2022-10-22T14:45:54;4.55;;;4.05;;
48199;SDS011;33990;44.602;10.976;2022-10-22T14:48:22;4.53;;;4.13;;
48199;SDS011;33990;44.602;10.976;2022-10-22T14:50:49;4.43;;;4.03;;
48199;SDS011;33990;44.602;10.976;2022-10-22T14:53:17;4.35;;;3.67;;
48199;SDS011;33990;44.602;10.976;2022-10-22T14:55:44;4.95;;;4.45;;
48199;SDS011;33990;44.602;10.976;2022-10-22T14:58:13;4.57;;;3.70;;
48199;SDS011;33990;44.602;10.976;2022-10-22T15:00:41;5.05;;;4.20;;
48199;SDS011;33990;44.602;10.976;2022-10-22T15:03:09;4.50;;;4.10;;
48199;SDS011;33990;44.602;10.976;2022-10-22T15:05:41;4.32;;;3.92;;
48199;SDS011;33990;44.602;10.976;2022-10-22T15:08:11;4.90;;;4.45;;
48199;SDS011;33990;44.602;10.976;2022-10-22T15:10:40;4.85;;;4.35;;
48199;SDS011;33990;44.602;10.976;2022-10-22T15:13:07;4.85;;;4.35;;
48199;SDS011;33990;44.602;10.976;2022-10-22T15:15:35;4.10;;;3.60;;
48199;SDS011;33990;44.602;10.976;2022-10-22T15:18:06;4.65;;;4.25;;
48199;SDS011;33990;44.602;10.976;2022-10-22T15:20:33;5.43;;;4.45;;
48199;SDS011;33990;44.602;10.976;2022-10-22T15:23:01;5.13;;;4.28;;
48199;SDS011;33990;44.602;10.976;2022-10-22T15:25:28;4.80;;;4.32;;
48199;SDS011;33990;44.602;10.976;2022-10-22T15:27:56;4.65;;;4.15;;
48199;SDS011;33990;44.602;10.976;2022-10-22T15:30:33;5.13;;;4.45;;
48199;SDS011;33990;44.602;10.976;2022-10-22T15:33:00;4.40;;;4.00;;
48199;SDS011;33990;44.602;10.976;2022-10-22T15:35:28;4.70;;;4.05;;
48199;SDS011;33990;44.602;10.976;2022-10-22T15:37:55;4.20;;;3.80;;
48199;SDS011;33990;44.602;10.976;2022-10-22T15:40:22;6.07;;;4.32;;
48199;SDS011;33990;44.602;10.976;2022-10-22T15:42:50;4.38;;;3.97;;
48199;SDS011;33990;44.602;10.976;2022-10-22T15:45:17;4.57;;;4.15;;
48199;SDS011;33990;44.602;10.976;2022-10-22T15:47:47;4.72;;;4.22;;
48199;SDS011;33990;44.602;10.976;2022-10-22T15:50:15;4.40;;;4.00;;
48199;SDS011;33990;44.602;10.976;2022-10-22T15:52:42;4.35;;;3.75;;
48199;SDS011;33990;44.602;10.976;2022-10-22T15:55:09;4.65;;;4.10;;
48199;SDS011;33990;44.602;10.976;2022-10-22T15:57:42;4.60;;;4.15;;
48199;SDS011;33990;44.602;10.976;2022-10-22T16:00:10;5.50;;;4.07;;
48199;SDS011;33990;44.602;10.976;2022-10-22T16:02:38;4.25;;;3.85;;
48199;SDS011;33990;44.602;10.976;2022-10-22T16:05:05;4.35;;;3.70;;
48199;SDS011;33990;44.602;10.976;2022-10-22T16:07:33;4.75;;;4.03;;
48199;SDS011;33990;44.602;10.976;2022-10-22T16:10:00;4.38;;;3.90;;
48199;SDS011;33990;44.602;10.976;2022-10-22T16:12:28;4.35;;;3.95;;
48199;SDS011;33990;44.602;10.976;2022-10-22T16:14:55;5.00;;;4.00;;
48199;SDS011;33990;44.602;10.976;2022-10-22T16:17:22;4.38;;;3.97;;
48199;SDS011;33990;44.602;10.976;2022-10-22T16:19:50;5.88;;;4.45;;
48199;SDS011;33990;44.602;10.976;2022-10-22T16:22:17;4.85;;;4.25;;
48199;SDS011;33990;44.602;10.976;2022-10-22T16:24:44;4.78;;;4.00;;
48199;SDS011;33990;44.602;10.976;2022-10-22T16:27:12;4.10;;;3.70;;
48199;SDS011;33990;44.602;10.976;2022-10-22T16:29:39;4.43;;;3.65;;
48199;SDS011;33990;44.602;10.976;2022-10-22T16:32:06;5.03;;;4.53;;
48199;SDS011;33990;44.602;10.976;2022-10-22T16:34:34;4.32;;;3.92;;
48199;SDS011;33990;44.602;10.976;2022-10-22T16:37:01;5.10;;;4.60;;
48199;SDS011;33990;44.602;10.976;2022-10-22T16:39:28;5.05;;;4.55;;
48199;SDS011;33990;44.602;10.976;2022-10-22T16:41:56;4.82;;;4.20;;
48199;SDS011;33990;44.602;10.976;2022-10-22T16:44:23;3.90;;;3.50;;
48199;SDS011;33990;44.602;10.976;2022-10-22T16:46:50;4.82;;;4.38;;
48199;SDS011;33990;44.602;10.976;2022-10-22T16:49:18;5.15;;;4.13;;
48199;SDS011;33990;44.602;10.976;2022-10-22T16:51:45;4.40;;;4.00;;
48199;SDS011;33990;44.602;10.976;2022-10-22T16:54:12;5.32;;;4.68;;
48199;SDS011;33990;44.602;10.976;2022-10-22T16:56:41;5.32;;;4.82;;
48199;SDS011;33990;44.602;10.976;2022-10-22T16:59:08;5.05;;;4.38;;